createdAt,value
2022-09-25T00:01:00.363Z,101586.16
2022-09-25T00:03:30.485Z,101607.75
2022-09-25T00:06:09.649Z,101590.59
2022-09-25T00:08:37.386Z,101547.34
2022-09-25T00:11:11.111Z,101581.25
2022-09-25T00:13:38.591Z,101553.19
2022-09-25T00:16:05.718Z,101525.16
2022-09-25T00:18:51.321Z,101576.31
2022-09-25T00:21:18.537Z,101568.03
2022-09-25T00:23:46.200Z,101524.16
2022-09-25T00:26:15.393Z,101544.69
2022-09-25T00:28:43.251Z,101530.75
2022-09-25T00:31:11.113Z,101565.91
2022-09-25T00:33:37.874Z,101524.81
2022-09-25T00:36:07.551Z,101549.47
2022-09-25T00:38:35.994Z,101564.38
2022-09-25T00:41:03.560Z,101519.16
2022-09-25T00:43:40.927Z,101526.53
2022-09-25T00:46:13.798Z,101524.13
2022-09-25T00:49:00.848Z,101527.44
2022-09-25T00:51:34.981Z,101550.75
2022-09-25T00:54:05.442Z,101521.91
2022-09-25T00:56:37.968Z,101530.72
2022-09-25T00:59:06.971Z,101535.59
2022-09-25T01:01:33.677Z,101522.44
2022-09-25T01:04:00.691Z,101540.28
2022-09-25T01:06:28.256Z,101534.91
2022-09-25T01:08:56.613Z,101504.00
2022-09-25T01:11:23.319Z,101495.03
2022-09-25T01:13:54.164Z,101484.75
2022-09-25T01:16:35.542Z,101494.13
2022-09-25T01:19:20.425Z,101517.19
2022-09-25T01:21:54.704Z,101514.72
2022-09-25T01:24:42.805Z,101516.22
2022-09-25T01:27:27.736Z,101506.75
2022-09-25T01:30:05.951Z,101454.97
2022-09-25T01:32:43.629Z,101499.34
2022-09-25T01:35:22.263Z,101490.63
2022-09-25T01:38:00.162Z,101495.78
2022-09-25T01:40:26.875Z,101488.50
2022-09-25T01:43:01.937Z,101475.34
2022-09-25T01:45:55.265Z,101463.75
2022-09-25T01:48:26.617Z,101408.28
2022-09-25T01:51:31.244Z,101462.09
2022-09-25T01:54:04.314Z,101438.22
2022-09-25T01:56:39.986Z,101435.53
2022-09-25T01:59:13.351Z,101441.56
2022-09-25T02:01:42.603Z,101443.94
2022-09-25T02:04:16.424Z,101408.66
2022-09-25T02:06:47.713Z,101425.63
2022-09-25T02:09:20.811Z,101427.94
2022-09-25T02:11:51.869Z,101459.84
2022-09-25T02:14:23.374Z,101390.75
2022-09-25T02:16:56.451Z,101425.84
2022-09-25T02:19:42.753Z,101434.38
2022-09-25T02:22:20.328Z,101457.94
2022-09-25T02:25:00.725Z,101421.72
2022-09-25T02:27:28.556Z,101426.88
2022-09-25T02:29:58.576Z,101414.66
2022-09-25T02:32:31.173Z,101427.38
2022-09-25T02:35:00.011Z,101439.81
2022-09-25T02:37:27.394Z,101440.81
2022-09-25T02:39:58.270Z,101412.44
2022-09-25T02:42:36.331Z,101407.53
2022-09-25T02:45:42.830Z,101438.16
2022-09-25T02:48:16.066Z,101437.25
2022-09-25T02:50:54.648Z,101387.59
2022-09-25T02:53:36.699Z,101398.63
2022-09-25T02:56:09.843Z,101355.75
2022-09-25T02:58:52.549Z,101385.69
2022-09-25T03:01:22.581Z,101364.00
2022-09-25T03:03:53.944Z,101349.34
2022-09-25T03:06:22.720Z,101361.59
2022-09-25T03:08:54.364Z,101360.44
2022-09-25T03:11:21.852Z,101336.19
2022-09-25T03:14:07.558Z,101398.06
2022-09-25T03:16:52.075Z,101327.47
2022-09-25T03:19:22.116Z,101339.59
2022-09-25T03:21:50.080Z,101346.63
2022-09-25T03:24:17.216Z,101359.19
2022-09-25T03:26:44.647Z,101331.69
2022-09-25T03:29:15.410Z,101303.63
2022-09-25T03:31:42.738Z,101327.56
2022-09-25T03:34:11.306Z,101298.34
2022-09-25T03:36:38.059Z,101333.84
2022-09-25T03:39:06.191Z,101355.03
2022-09-25T03:41:35.475Z,101285.63
2022-09-25T03:44:02.388Z,101320.47
2022-09-25T03:46:31.940Z,101342.97
2022-09-25T03:48:58.993Z,101305.94
2022-09-25T03:51:27.618Z,101288.13
2022-09-25T03:53:54.734Z,101279.63
2022-09-25T03:56:24.619Z,101340.31
2022-09-25T03:58:54.425Z,101276.19
2022-09-25T04:01:22.693Z,101281.75
2022-09-25T04:03:50.047Z,101262.22
2022-09-25T04:06:20.121Z,101290.47
2022-09-25T04:08:48.555Z,101327.72
2022-09-25T04:11:17.127Z,101322.28
2022-09-25T04:13:46.991Z,101286.59
2022-09-25T04:16:16.155Z,101307.59
2022-09-25T04:18:43.652Z,101315.91
2022-09-25T04:21:13.534Z,101278.00
2022-09-25T04:23:41.150Z,101300.91
2022-09-25T04:26:09.264Z,101292.75
2022-09-25T04:28:36.362Z,101235.31
2022-09-25T04:31:04.153Z,101245.44
2022-09-25T04:33:46.573Z,101261.56
2022-09-25T04:36:14.461Z,101281.69
2022-09-25T04:38:41.367Z,101253.13
2022-09-25T04:41:08.321Z,101234.75
2022-09-25T04:43:35.510Z,101265.94
2022-09-25T04:46:06.970Z,101225.34
2022-09-25T04:48:34.299Z,101225.00
2022-09-25T04:51:01.101Z,101215.91
2022-09-25T04:53:30.555Z,101232.06
2022-09-25T04:56:02.464Z,101199.66
2022-09-25T04:58:29.184Z,101238.88
2022-09-25T05:00:55.910Z,101224.34
2022-09-25T05:03:22.679Z,101222.66
2022-09-25T05:05:49.728Z,101197.38
2022-09-25T05:08:16.410Z,101238.78
2022-09-25T05:10:44.391Z,101197.88
2022-09-25T05:13:11.447Z,101199.53
2022-09-25T05:15:38.230Z,101208.97
2022-09-25T05:18:15.909Z,101229.28
2022-09-25T05:20:42.884Z,101238.00
2022-09-25T05:23:09.769Z,101211.47
2022-09-25T05:25:36.570Z,101191.47
2022-09-25T05:28:03.536Z,101187.44
2022-09-25T05:30:32.559Z,101213.41
2022-09-25T05:32:59.842Z,101223.47
2022-09-25T05:35:29.400Z,101225.56
2022-09-25T05:37:56.316Z,101179.22
2022-09-25T05:40:24.268Z,101174.06
2022-09-25T05:42:52.128Z,101222.69
2022-09-25T05:45:20.390Z,101206.84
2022-09-25T05:47:47.366Z,101200.78
2022-09-25T05:50:16.310Z,101230.66
2022-09-25T05:52:43.452Z,101186.94
2022-09-25T05:55:11.067Z,101234.53
2022-09-25T05:57:38.825Z,101227.41
2022-09-25T06:00:11.667Z,101228.94
2022-09-25T06:02:38.344Z,101170.13
2022-09-25T06:05:05.544Z,101215.19
2022-09-25T06:07:32.250Z,101214.63
2022-09-25T06:09:58.931Z,101169.94
2022-09-25T06:12:25.724Z,101204.69
2022-09-25T06:14:52.822Z,101176.47
2022-09-25T06:17:20.413Z,101178.84
2022-09-25T06:19:47.656Z,101138.75
2022-09-25T06:22:14.619Z,101152.84
2022-09-25T06:24:41.393Z,101166.81
2022-09-25T06:27:08.925Z,101128.16
2022-09-25T06:29:36.078Z,101195.50
2022-09-25T06:32:05.840Z,101198.19
2022-09-25T06:34:32.809Z,101141.47
2022-09-25T06:37:01.288Z,101144.19
2022-09-25T06:39:28.015Z,101130.66
2022-09-25T06:41:54.655Z,101120.16
2022-09-25T06:44:23.045Z,101129.19
2022-09-25T06:46:54.631Z,101143.44
2022-09-25T06:49:22.067Z,101126.13
2022-09-25T06:51:51.146Z,101103.59
2022-09-25T06:54:18.178Z,101136.50
2022-09-25T06:56:49.483Z,101103.63
2022-09-25T06:59:17.074Z,101103.47
2022-09-25T07:01:43.891Z,101096.91
2022-09-25T07:04:10.716Z,101115.19
2022-09-25T07:06:37.977Z,101075.56
2022-09-25T07:09:04.898Z,101050.03
2022-09-25T07:11:31.649Z,101080.06
2022-09-25T07:13:58.667Z,101070.34
2022-09-25T07:16:27.898Z,101059.00
2022-09-25T07:18:57.399Z,101056.06
2022-09-25T07:21:25.897Z,101085.09
2022-09-25T07:23:52.682Z,101032.75
2022-09-25T07:26:22.531Z,101079.72
2022-09-25T07:28:57.728Z,100999.13
2022-09-25T07:31:29.658Z,101061.28
2022-09-25T07:33:59.589Z,101025.50
2022-09-25T07:36:26.263Z,101035.81
2022-09-25T07:38:53.491Z,101044.59
2022-09-25T07:41:22.878Z,101015.28
2022-09-25T07:46:44.881Z,101022.28
2022-09-25T07:49:12.149Z,100982.50
2022-09-25T07:51:41.701Z,100956.41
2022-09-25T07:54:08.539Z,100950.03
2022-09-25T07:56:35.373Z,100962.59
2022-09-25T07:59:02.110Z,101012.25
2022-09-25T08:01:28.896Z,100952.53
2022-09-25T08:03:55.690Z,100980.22
2022-09-25T08:06:22.382Z,100955.50
2022-09-25T08:08:49.137Z,100981.91
2022-09-25T08:11:18.377Z,100991.69
2022-09-25T08:13:46.140Z,100931.28
2022-09-25T08:16:18.169Z,100960.41
2022-09-25T08:18:46.684Z,100976.34
2022-09-25T08:21:16.076Z,100907.94
2022-09-25T08:23:48.045Z,100952.28
2022-09-25T08:26:15.678Z,100966.00
2022-09-25T08:28:42.659Z,100920.50
2022-09-25T08:31:09.462Z,100978.69
2022-09-25T08:33:37.524Z,100922.63
2022-09-25T08:36:05.623Z,100878.31
2022-09-25T08:38:33.396Z,100944.94
2022-09-25T08:41:09.668Z,100925.47
2022-09-25T08:43:43.111Z,100921.31
2022-09-25T08:46:41.283Z,100894.00
2022-09-25T08:49:11.303Z,100938.97
2022-09-25T08:51:38.107Z,100925.38
2022-09-25T08:54:06.010Z,100876.69
2022-09-25T08:56:35.269Z,100922.03
2022-09-25T08:59:10.821Z,100876.50
2022-09-25T09:01:44.201Z,100899.19
2022-09-25T09:04:19.879Z,100890.69
2022-09-25T09:07:08.113Z,100884.25
2022-09-25T09:09:52.974Z,100850.88
2022-09-25T09:12:32.124Z,100864.81
2022-09-25T09:15:16.683Z,100871.88
2022-09-25T09:17:43.701Z,100856.84
2022-09-25T09:20:19.383Z,100812.16
2022-09-25T09:22:53.285Z,100807.31
2022-09-25T09:25:35.246Z,100854.16
2022-09-25T09:28:23.082Z,100859.59
2022-09-25T09:30:58.716Z,100839.03
2022-09-25T09:33:35.636Z,100777.69
2022-09-25T09:36:13.682Z,100815.94
2022-09-25T09:39:02.603Z,100790.03
2022-09-25T09:41:44.208Z,100783.31
2022-09-25T09:44:13.833Z,100819.22
2022-09-25T09:47:04.229Z,100801.88
2022-09-25T09:49:47.539Z,100785.63
2022-09-25T09:52:25.598Z,100776.16
2022-09-25T09:55:07.673Z,100761.06
2022-09-25T09:57:47.563Z,100730.66
2022-09-25T10:00:17.129Z,100780.53
2022-09-25T10:02:46.304Z,100767.53
2022-09-25T10:05:22.949Z,100749.66
2022-09-25T10:07:51.452Z,100695.13
2022-09-25T10:10:19.626Z,100697.34
2022-09-25T10:12:53.060Z,100740.97
2022-09-25T10:15:36.317Z,100729.66
2022-09-25T10:18:04.474Z,100699.41
2022-09-25T10:21:06.861Z,100660.81
2022-09-25T10:23:51.632Z,100651.19
2022-09-25T10:26:33.427Z,100679.09
2022-09-25T10:29:05.794Z,100637.94
2022-09-25T10:31:40.834Z,100632.44
2022-09-25T10:34:13.659Z,100652.97
2022-09-25T10:36:46.544Z,100644.16
2022-09-25T10:39:44.718Z,100651.31
2022-09-25T10:42:37.592Z,100644.19
2022-09-25T10:45:32.174Z,100619.47
2022-09-25T10:48:17.718Z,100599.72
2022-09-25T10:50:44.644Z,100622.03
2022-09-25T10:53:33.378Z,100564.19
2022-09-25T10:56:13.089Z,100548.19
2022-09-25T10:58:55.284Z,100552.50
2022-09-25T11:01:31.251Z,100556.56
2022-09-25T11:03:59.013Z,100570.16
2022-09-25T11:06:33.379Z,100498.75
2022-09-25T11:09:13.699Z,100571.94
2022-09-25T11:11:41.459Z,100512.63
2022-09-25T11:14:22.657Z,100508.22
2022-09-25T11:16:55.493Z,100543.06
2022-09-25T11:19:25.419Z,100539.09
2022-09-25T11:22:18.341Z,100527.72
2022-09-25T11:25:01.086Z,100545.25
2022-09-25T11:27:49.168Z,100544.63
2022-09-25T11:30:18.309Z,100550.69
2022-09-25T11:33:09.098Z,100534.88
2022-09-25T11:35:45.992Z,100512.63
2022-09-25T11:38:15.712Z,100535.41
2022-09-25T11:41:18.729Z,100521.81
2022-09-25T11:43:58.371Z,100519.50
2022-09-25T11:47:04.973Z,100479.69
2022-09-25T11:49:38.323Z,100477.91
2022-09-25T11:52:23.953Z,100452.06
2022-09-25T11:55:34.763Z,100448.22
2022-09-25T11:58:04.361Z,100467.28
2022-09-25T12:00:38.653Z,100464.03
2022-09-25T12:03:30.419Z,100464.72
2022-09-25T12:06:15.978Z,100454.97
2022-09-25T12:09:04.267Z,100450.75
2022-09-25T12:11:45.623Z,100387.28
2022-09-25T12:14:22.536Z,100386.47
2022-09-25T12:17:01.917Z,100369.00
2022-09-25T12:19:45.649Z,100390.19
2022-09-25T12:22:49.843Z,100389.59
2022-09-25T12:25:45.189Z,100396.47
2022-09-25T12:28:17.843Z,100401.81
2022-09-25T12:31:10.698Z,100397.69
2022-09-25T12:33:46.328Z,100386.06
2022-09-25T12:36:19.415Z,100311.09
2022-09-25T12:38:55.518Z,100354.72
2022-09-25T12:41:36.453Z,100341.44
2022-09-25T12:44:27.451Z,100346.50
2022-09-25T12:46:57.731Z,100299.78
2022-09-25T12:49:37.306Z,100319.66
2022-09-25T12:52:17.366Z,100325.63
2022-09-25T12:55:07.647Z,100321.56
2022-09-25T12:57:46.034Z,100286.56
2022-09-25T13:00:29.199Z,100235.28
2022-09-25T13:03:02.248Z,100296.09
2022-09-25T13:05:34.294Z,100280.78
2022-09-25T13:08:12.998Z,100276.72
2022-09-25T13:11:02.320Z,100262.03
2022-09-25T13:13:36.221Z,100191.81
2022-09-25T13:16:03.757Z,100098.41
2022-09-25T13:18:34.213Z,100153.88
2022-09-25T13:21:31.790Z,100217.44
2022-09-25T13:24:00.300Z,100129.88
2022-09-25T13:26:28.256Z,100055.59
2022-09-25T13:29:01.908Z,100094.00
2022-09-25T13:31:34.627Z,100030.06
2022-09-25T13:34:01.566Z,100156.28
2022-09-25T13:36:38.129Z,100017.06
2022-09-25T13:39:45.018Z,100101.59
2022-09-25T13:42:39.493Z,99994.00
2022-09-25T13:45:26.203Z,100105.56
2022-09-25T13:48:04.450Z,100023.06
2022-09-25T13:50:37.864Z,100018.38
2022-09-25T13:53:23.172Z,99993.13
2022-09-25T13:55:56.496Z,100071.00
2022-09-25T13:58:29.323Z,100020.44
2022-09-25T14:01:03.177Z,100097.88
2022-09-25T14:03:50.543Z,100050.53
2022-09-25T14:06:20.879Z,100058.41
2022-09-25T14:08:49.654Z,99905.84
2022-09-25T14:11:22.484Z,99946.22
2022-09-25T14:13:52.877Z,99940.84
2022-09-25T14:16:30.703Z,100030.31
2022-09-25T14:18:59.296Z,99909.78
2022-09-25T14:21:28.529Z,100018.06
2022-09-25T14:24:13.232Z,100000.50
2022-09-25T14:26:45.568Z,99956.19
2022-09-25T14:29:23.672Z,99975.59
2022-09-25T14:32:42.855Z,100011.41
2022-09-25T14:35:25.169Z,100006.75
2022-09-25T14:38:12.341Z,99990.44
2022-09-25T14:41:56.157Z,99969.06
2022-09-25T14:44:57.702Z,99969.59
2022-09-25T14:47:34.992Z,99931.63
2022-09-25T14:50:03.171Z,99929.41
2022-09-25T14:52:34.859Z,99919.44
2022-09-25T14:55:03.276Z,99881.13
2022-09-25T14:57:34.856Z,99934.22
2022-09-25T15:00:08.215Z,99915.84
2022-09-25T15:02:41.866Z,99854.97
2022-09-25T15:05:21.632Z,99872.69
2022-09-25T15:07:48.320Z,99910.00
2022-09-25T15:10:34.854Z,99904.75
2022-09-25T15:13:10.591Z,99863.59
2022-09-25T15:15:38.875Z,99849.16
2022-09-25T15:18:13.113Z,99869.88
2022-09-25T15:20:46.971Z,99839.22
2022-09-25T15:23:21.331Z,99836.91
2022-09-25T15:25:51.775Z,99831.69
2022-09-25T15:28:25.525Z,99774.38
2022-09-25T15:31:00.772Z,99800.72
2022-09-25T15:33:34.161Z,99786.38
2022-09-25T15:36:06.339Z,99771.78
2022-09-25T15:38:35.774Z,99800.84
2022-09-25T15:41:22.255Z,99800.59
2022-09-25T15:44:18.461Z,99666.97
2022-09-25T15:47:00.869Z,99751.63
2022-09-25T15:49:39.096Z,99766.66
2022-09-25T15:52:25.214Z,99738.19
2022-09-25T15:54:51.984Z,99733.09
2022-09-25T15:57:28.344Z,99691.19
2022-09-25T16:00:13.946Z,99697.84
2022-09-25T16:03:09.744Z,99687.59
2022-09-25T16:05:43.749Z,99690.88
2022-09-25T16:08:25.804Z,99730.47
2022-09-25T16:11:21.821Z,99726.44
2022-09-25T16:13:53.996Z,99669.72
2022-09-25T16:16:22.219Z,99675.28
2022-09-25T16:18:51.219Z,99683.81
2022-09-25T16:21:26.933Z,99670.88
2022-09-25T16:24:00.132Z,99659.72
2022-09-25T16:26:36.214Z,99674.94
2022-09-25T16:29:19.489Z,99633.31
2022-09-25T16:31:47.077Z,99658.19
2022-09-25T16:34:34.356Z,99613.19
2022-09-25T16:37:05.277Z,99646.19
2022-09-25T16:39:36.209Z,99572.50
2022-09-25T16:42:26.623Z,99609.22
2022-09-25T16:45:03.942Z,99569.34
2022-09-25T16:47:30.914Z,99593.16
2022-09-25T16:49:57.705Z,99561.00
2022-09-25T16:52:29.541Z,99550.06
2022-09-25T16:54:57.506Z,99547.09
2022-09-25T16:57:27.993Z,99559.56
2022-09-25T16:59:55.032Z,99612.59
2022-09-25T17:02:37.293Z,99586.78
2022-09-25T17:05:08.377Z,99541.09
2022-09-25T17:07:35.193Z,99532.41
2022-09-25T17:10:02.474Z,99510.34
2022-09-25T17:12:31.478Z,99555.91
2022-09-25T17:14:58.673Z,99467.91
2022-09-25T17:17:25.527Z,99462.84
2022-09-25T17:19:52.232Z,99453.03
2022-09-25T17:22:18.997Z,99462.88
2022-09-25T17:24:45.857Z,99458.09
2022-09-25T17:27:14.818Z,99474.84
2022-09-25T17:29:42.786Z,99417.91
2022-09-25T17:32:17.807Z,99453.88
2022-09-25T17:34:46.589Z,99395.22
2022-09-25T17:37:13.604Z,99418.03
2022-09-25T17:39:40.268Z,99409.16
2022-09-25T18:35:56.238Z,99249.31
2022-09-25T18:38:23.622Z,99338.06
2022-09-25T18:40:59.888Z,99363.09
2022-09-25T18:43:27.743Z,99346.53
2022-09-25T18:45:56.645Z,99350.88
2022-09-25T18:51:08.745Z,99257.50
2022-09-25T18:56:27.209Z,99297.13
2022-09-25T18:58:54.503Z,99275.03
2022-09-25T19:01:21.715Z,99353.78
2022-09-25T19:03:52.998Z,99300.78
2022-09-25T19:06:20.385Z,99311.38
2022-09-25T19:08:55.958Z,99300.44
2022-09-25T19:11:27.604Z,99304.38
2022-09-25T19:13:54.866Z,99325.06
2022-09-25T19:16:22.419Z,99308.22
2022-09-25T19:18:50.400Z,99275.91
2022-09-25T19:21:22.451Z,99314.00
2022-09-25T19:23:50.067Z,99307.56
2022-09-25T19:26:20.996Z,99290.91
2022-09-25T19:28:48.473Z,99264.72
2022-09-25T19:31:17.884Z,99278.25
2022-09-25T19:33:44.848Z,99209.19
2022-09-25T19:36:38.613Z,99260.22
2022-09-25T19:39:05.216Z,99269.06
2022-09-25T19:41:34.405Z,99216.19
2022-09-25T19:44:08.182Z,99241.66
2022-09-25T19:46:40.316Z,99216.75
2022-09-25T19:49:07.248Z,99182.97
2022-09-25T19:51:34.108Z,99193.66
2022-09-25T19:54:00.789Z,99209.06
2022-09-25T19:56:27.479Z,99170.41
2022-09-25T19:58:54.163Z,99209.94
2022-09-25T20:01:27.712Z,99247.75
2022-09-25T20:03:58.290Z,99207.69
2022-09-25T20:06:26.981Z,99240.13
2022-09-25T20:08:58.180Z,99249.13
2022-09-25T20:11:26.000Z,99182.25
2022-09-25T20:13:54.123Z,99266.56
2022-09-25T20:16:26.399Z,99229.94
2022-09-25T20:18:57.811Z,99244.88
2022-09-25T20:21:25.644Z,99251.38
2022-09-25T20:23:54.478Z,99242.03
2022-09-25T20:26:23.327Z,99272.00
2022-09-25T20:28:59.204Z,99239.44
2022-09-25T20:31:27.889Z,99269.84
2022-09-25T20:33:55.102Z,99196.66
2022-09-25T20:36:22.933Z,99204.94
2022-09-25T20:38:51.499Z,99214.50
2022-09-25T20:41:19.625Z,99198.25
2022-09-25T20:43:50.740Z,99196.22
2022-09-25T20:46:20.492Z,99218.56
2022-09-25T20:48:51.234Z,99197.25
2022-09-25T20:51:20.831Z,99191.28
2022-09-25T20:53:52.164Z,99170.81
2022-09-25T20:56:19.617Z,99174.88
2022-09-25T20:58:52.178Z,99177.75
2022-09-25T21:01:22.910Z,99144.22
2022-09-25T21:03:51.256Z,99118.59
2022-09-25T21:06:19.313Z,99095.75
2022-09-25T21:08:47.093Z,99148.66
2022-09-25T21:11:13.893Z,99158.50
2022-09-25T21:13:41.664Z,99124.59
2022-09-25T21:16:11.063Z,99153.56
2022-09-25T21:18:39.528Z,99166.75
2022-09-25T21:21:16.143Z,99166.72
2022-09-25T21:23:43.638Z,99141.09
2022-09-25T21:26:14.968Z,99167.78
2022-09-25T21:28:48.227Z,99141.78
2022-09-25T21:31:14.769Z,99171.69
2022-09-25T21:33:42.615Z,99159.66
2022-09-25T21:36:11.655Z,99164.94
2022-09-25T21:38:38.629Z,99135.50
2022-09-25T21:41:07.737Z,99167.88
2022-09-25T21:43:35.641Z,99162.38
2022-09-25T21:46:07.815Z,99128.06
2022-09-25T21:48:36.156Z,99160.06
2022-09-25T21:51:05.324Z,99153.19
2022-09-25T21:53:33.936Z,99134.06
2022-09-25T21:56:02.565Z,99156.13
2022-09-25T21:58:29.630Z,99107.84
2022-09-25T22:01:26.928Z,99137.78
2022-09-25T22:03:57.020Z,99126.88
2022-09-25T22:06:30.340Z,99153.69
2022-09-25T22:09:01.705Z,99130.38
2022-09-25T22:11:29.257Z,99137.72
2022-09-25T22:13:57.874Z,99121.72
2022-09-25T22:16:37.039Z,99097.53
2022-09-25T22:19:19.153Z,99151.06
2022-09-25T22:21:47.781Z,99143.28
2022-09-25T22:24:18.131Z,99137.88
2022-09-25T22:26:49.508Z,99141.13
2022-09-25T22:29:21.159Z,99157.53
2022-09-25T22:31:48.658Z,99149.75
2022-09-25T22:34:18.410Z,99158.72
2022-09-25T22:36:45.182Z,99124.59
2022-09-25T22:39:14.430Z,99165.03
2022-09-25T22:41:41.591Z,99132.38
2022-09-25T22:44:08.454Z,99129.75
2022-09-25T22:46:35.272Z,99154.47
2022-09-25T22:49:02.914Z,99147.44
2022-09-25T22:51:29.714Z,99157.53
2022-09-25T22:53:56.504Z,99112.72
2022-09-25T22:56:24.827Z,99120.28
2022-09-25T22:58:57.678Z,99151.16
2022-09-25T23:01:38.003Z,99135.22
2022-09-25T23:04:07.762Z,99136.34
2022-09-25T23:06:35.115Z,99065.28
2022-09-25T23:09:05.447Z,99068.84
2022-09-25T23:11:32.589Z,99090.25
2022-09-25T23:14:01.684Z,99110.38
2022-09-25T23:16:29.990Z,99077.94
2022-09-25T23:19:00.762Z,99078.41
2022-09-25T23:21:28.990Z,99091.41
2022-09-25T23:24:00.951Z,99114.41
2022-09-25T23:26:28.906Z,99100.28
2022-09-25T23:28:55.883Z,99105.53
2022-09-25T23:31:22.703Z,99114.34
2022-09-25T23:33:49.491Z,99103.97
2022-09-25T23:36:20.296Z,99099.53
2022-09-25T23:38:48.304Z,99078.91
2022-09-25T23:41:19.646Z,99114.09
2022-09-25T23:43:47.650Z,99084.34
2022-09-25T23:46:16.170Z,99100.56
2022-09-25T23:48:44.220Z,99088.94
2022-09-25T23:51:12.069Z,99103.69
2022-09-25T23:53:38.899Z,99118.56
2022-09-25T23:56:16.018Z,99120.69
2022-09-25T23:58:43.124Z,99110.69
